sensor_id;sensor_type;location;lat;lon;timestamp;temperature;humidity
67769;DHT22;54569;52.018;5.584;2023-06-22T00:01:55;21.00;64.80
67769;DHT22;54569;52.018;5.584;2023-06-22T00:04:21;21.00;64.70
67769;DHT22;54569;52.018;5.584;2023-06-22T00:06:46;21.00;64.80
67769;DHT22;54569;52.018;5.584;2023-06-22T00:09:12;21.00;64.80
67769;DHT22;54569;52.018;5.584;2023-06-22T00:11:38;20.90;65.10
67769;DHT22;54569;52.018;5.584;2023-06-22T00:14:04;20.90;65.10
67769;DHT22;54569;52.018;5.584;2023-06-22T00:16:32;20.90;65.20
67769;DHT22;54569;52.018;5.584;2023-06-22T00:18:58;20.90;65.30
67769;DHT22;54569;52.018;5.584;2023-06-22T00:21:26;20.90;65.40
67769;DHT22;54569;52.018;5.584;2023-06-22T00:23:52;20.90;65.60
67769;DHT22;54569;52.018;5.584;2023-06-22T00:26:17;20.80;65.70
67769;DHT22;54569;52.018;5.584;2023-06-22T00:28:43;20.80;65.90
67769;DHT22;54569;52.018;5.584;2023-06-22T00:31:09;20.70;65.90
67769;DHT22;54569;52.018;5.584;2023-06-22T00:33:34;20.70;66.10
67769;DHT22;54569;52.018;5.584;2023-06-22T00:36:05;20.60;66.20
67769;DHT22;54569;52.018;5.584;2023-06-22T00:38:31;20.60;66.50
67769;DHT22;54569;52.018;5.584;2023-06-22T00:40:57;20.50;66.40
67769;DHT22;54569;52.018;5.584;2023-06-22T00:43:22;20.50;66.50
67769;DHT22;54569;52.018;5.584;2023-06-22T00:45:48;20.40;66.70
67769;DHT22;54569;52.018;5.584;2023-06-22T00:48:16;20.40;66.80
67769;DHT22;54569;52.018;5.584;2023-06-22T00:50:42;20.40;66.90
67769;DHT22;54569;52.018;5.584;2023-06-22T00:53:09;20.40;67.00
67769;DHT22;54569;52.018;5.584;2023-06-22T00:55:42;20.30;66.90
67769;DHT22;54569;52.018;5.584;2023-06-22T00:58:12;20.30;67.10
67769;DHT22;54569;52.018;5.584;2023-06-22T01:00:40;20.20;67.10
67769;DHT22;54569;52.018;5.584;2023-06-22T01:03:06;20.20;67.20
67769;DHT22;54569;52.018;5.584;2023-06-22T01:05:36;20.10;67.30
67769;DHT22;54569;52.018;5.584;2023-06-22T01:11:01;20.10;67.50
67769;DHT22;54569;52.018;5.584;2023-06-22T01:16:29;20.10;68.10
67769;DHT22;54569;52.018;5.584;2023-06-22T01:18:57;20.10;68.30
67769;DHT22;54569;52.018;5.584;2023-06-22T01:21:26;20.00;67.90
67769;DHT22;54569;52.018;5.584;2023-06-22T01:29:21;20.00;68.50
67769;DHT22;54569;52.018;5.584;2023-06-22T01:31:48;19.90;68.30
67769;DHT22;54569;52.018;5.584;2023-06-22T01:34:16;19.90;68.40
67769;DHT22;54569;52.018;5.584;2023-06-22T01:36:42;19.80;68.50
67769;DHT22;54569;52.018;5.584;2023-06-22T01:39:09;19.80;68.60
67769;DHT22;54569;52.018;5.584;2023-06-22T01:41:38;19.80;68.90
67769;DHT22;54569;52.018;5.584;2023-06-22T01:44:07;19.80;68.90
67769;DHT22;54569;52.018;5.584;2023-06-22T01:46:36;19.80;69.10
67769;DHT22;54569;52.018;5.584;2023-06-22T01:49:03;19.70;69.10
67769;DHT22;54569;52.018;5.584;2023-06-22T01:51:29;19.70;69.30
67769;DHT22;54569;52.018;5.584;2023-06-22T01:53:59;19.70;69.30
67769;DHT22;54569;52.018;5.584;2023-06-22T01:56:26;19.60;69.30
67769;DHT22;54569;52.018;5.584;2023-06-22T02:01:39;19.60;69.70
67769;DHT22;54569;52.018;5.584;2023-06-22T02:04:13;19.50;69.50
67769;DHT22;54569;52.018;5.584;2023-06-22T02:06:42;19.50;69.60
67769;DHT22;54569;52.018;5.584;2023-06-22T02:09:14;19.50;69.60
67769;DHT22;54569;52.018;5.584;2023-06-22T02:11:42;19.40;69.60
67769;DHT22;54569;52.018;5.584;2023-06-22T02:14:09;19.40;69.80
67769;DHT22;54569;52.018;5.584;2023-06-22T02:16:35;19.40;69.90
67769;DHT22;54569;52.018;5.584;2023-06-22T02:19:03;19.40;70.00
67769;DHT22;54569;52.018;5.584;2023-06-22T02:21:29;19.40;70.00
67769;DHT22;54569;52.018;5.584;2023-06-22T02:23:55;19.40;70.00
67769;DHT22;54569;52.018;5.584;2023-06-22T02:26:21;19.40;70.00
67769;DHT22;54569;52.018;5.584;2023-06-22T02:28:47;19.40;70.10
67769;DHT22;54569;52.018;5.584;2023-06-22T02:31:16;19.40;70.80
67769;DHT22;54569;52.018;5.584;2023-06-22T02:33:42;19.30;70.80
67769;DHT22;54569;52.018;5.584;2023-06-22T02:36:09;19.30;70.20
67769;DHT22;54569;52.018;5.584;2023-06-22T02:38:41;19.30;70.30
67769;DHT22;54569;52.018;5.584;2023-06-22T02:41:14;19.30;70.30
67769;DHT22;54569;52.018;5.584;2023-06-22T02:43:46;19.20;70.40
67769;DHT22;54569;52.018;5.584;2023-06-22T02:46:13;19.20;70.60
67769;DHT22;54569;52.018;5.584;2023-06-22T02:48:40;19.20;70.70
67769;DHT22;54569;52.018;5.584;2023-06-22T02:51:07;19.10;70.80
67769;DHT22;54569;52.018;5.584;2023-06-22T02:53:35;19.10;70.90
67769;DHT22;54569;52.018;5.584;2023-06-22T02:56:02;19.10;71.00
67769;DHT22;54569;52.018;5.584;2023-06-22T02:58:32;19.10;71.10
67769;DHT22;54569;52.018;5.584;2023-06-22T03:01:05;19.10;71.00
67769;DHT22;54569;52.018;5.584;2023-06-22T03:03:32;19.10;70.90
67769;DHT22;54569;52.018;5.584;2023-06-22T03:05:57;19.10;71.10
67769;DHT22;54569;52.018;5.584;2023-06-22T03:08:24;19.10;71.30
67769;DHT22;54569;52.018;5.584;2023-06-22T03:10:50;19.10;71.20
67769;DHT22;54569;52.018;5.584;2023-06-22T03:13:15;19.00;71.30
67769;DHT22;54569;52.018;5.584;2023-06-22T03:15:42;19.00;71.30
67769;DHT22;54569;52.018;5.584;2023-06-22T03:18:07;19.00;71.30
67769;DHT22;54569;52.018;5.584;2023-06-22T03:20:33;19.00;71.60
67769;DHT22;54569;52.018;5.584;2023-06-22T03:22:59;19.00;71.70
67769;DHT22;54569;52.018;5.584;2023-06-22T03:25:25;19.00;71.70
67769;DHT22;54569;52.018;5.584;2023-06-22T03:27:51;19.00;71.80
67769;DHT22;54569;52.018;5.584;2023-06-22T03:30:17;19.00;72.00
67769;DHT22;54569;52.018;5.584;2023-06-22T03:32:45;19.00;72.00
67769;DHT22;54569;52.018;5.584;2023-06-22T03:35:12;19.00;72.00
67769;DHT22;54569;52.018;5.584;2023-06-22T03:37:39;18.90;72.10
67769;DHT22;54569;52.018;5.584;2023-06-22T03:40:05;18.90;72.20
67769;DHT22;54569;52.018;5.584;2023-06-22T03:42:35;18.90;72.30
67769;DHT22;54569;52.018;5.584;2023-06-22T03:45:02;18.90;72.50
67769;DHT22;54569;52.018;5.584;2023-06-22T03:47:29;18.80;72.40
67769;DHT22;54569;52.018;5.584;2023-06-22T03:49:56;18.80;72.60
67769;DHT22;54569;52.018;5.584;2023-06-22T03:52:22;18.80;72.80
67769;DHT22;54569;52.018;5.584;2023-06-22T03:54:48;18.70;72.80
67769;DHT22;54569;52.018;5.584;2023-06-22T03:57:14;18.70;73.00
67769;DHT22;54569;52.018;5.584;2023-06-22T03:59:39;18.70;73.10
67769;DHT22;54569;52.018;5.584;2023-06-22T04:02:05;18.70;73.00
67769;DHT22;54569;52.018;5.584;2023-06-22T04:04:31;18.70;73.10
67769;DHT22;54569;52.018;5.584;2023-06-22T04:06:56;18.60;73.10
67769;DHT22;54569;52.018;5.584;2023-06-22T04:09:22;18.60;73.20
67769;DHT22;54569;52.018;5.584;2023-06-22T04:11:48;18.60;73.40
67769;DHT22;54569;52.018;5.584;2023-06-22T04:14:13;18.60;73.50
67769;DHT22;54569;52.018;5.584;2023-06-22T04:16:39;18.60;73.30
67769;DHT22;54569;52.018;5.584;2023-06-22T04:19:05;18.60;73.30
67769;DHT22;54569;52.018;5.584;2023-06-22T04:21:31;18.60;73.30
67769;DHT22;54569;52.018;5.584;2023-06-22T04:23:57;18.70;73.20
67769;DHT22;54569;52.018;5.584;2023-06-22T04:26:23;18.70;73.20
67769;DHT22;54569;52.018;5.584;2023-06-22T04:28:48;18.70;73.20
67769;DHT22;54569;52.018;5.584;2023-06-22T04:31:21;18.70;73.10
67769;DHT22;54569;52.018;5.584;2023-06-22T04:33:46;18.80;73.10
67769;DHT22;54569;52.018;5.584;2023-06-22T04:36:12;18.80;73.20
67769;DHT22;54569;52.018;5.584;2023-06-22T04:38:39;18.90;73.20
67769;DHT22;54569;52.018;5.584;2023-06-22T04:41:05;18.90;73.30
67769;DHT22;54569;52.018;5.584;2023-06-22T04:43:33;18.90;73.00
67769;DHT22;54569;52.018;5.584;2023-06-22T04:45:59;18.90;73.20
67769;DHT22;54569;52.018;5.584;2023-06-22T04:48:29;18.90;73.20
67769;DHT22;54569;52.018;5.584;2023-06-22T04:50:59;19.00;73.10
67769;DHT22;54569;52.018;5.584;2023-06-22T04:53:29;19.00;73.10
67769;DHT22;54569;52.018;5.584;2023-06-22T04:55:56;19.00;73.00
67769;DHT22;54569;52.018;5.584;2023-06-22T04:58:21;19.00;73.10
67769;DHT22;54569;52.018;5.584;2023-06-22T05:00:47;19.10;73.10
67769;DHT22;54569;52.018;5.584;2023-06-22T05:03:13;19.10;73.20
67769;DHT22;54569;52.018;5.584;2023-06-22T05:05:39;19.10;73.10
67769;DHT22;54569;52.018;5.584;2023-06-22T05:08:04;19.20;73.30
67769;DHT22;54569;52.018;5.584;2023-06-22T05:10:33;19.20;73.20
67769;DHT22;54569;52.018;5.584;2023-06-22T05:12:59;19.30;73.10
67769;DHT22;54569;52.018;5.584;2023-06-22T05:15:24;19.40;73.10
67769;DHT22;54569;52.018;5.584;2023-06-22T05:17:53;19.50;73.10
67769;DHT22;54569;52.018;5.584;2023-06-22T05:20:19;19.50;72.90
67769;DHT22;54569;52.018;5.584;2023-06-22T05:22:45;19.60;73.00
67769;DHT22;54569;52.018;5.584;2023-06-22T05:25:11;19.70;72.90
67769;DHT22;54569;52.018;5.584;2023-06-22T05:27:37;19.70;72.80
67769;DHT22;54569;52.018;5.584;2023-06-22T05:30:09;19.80;72.70
67769;DHT22;54569;52.018;5.584;2023-06-22T05:32:36;19.90;72.70
67769;DHT22;54569;52.018;5.584;2023-06-22T05:35:02;20.00;72.70
67769;DHT22;54569;52.018;5.584;2023-06-22T05:37:29;20.00;72.70
67769;DHT22;54569;52.018;5.584;2023-06-22T05:39:54;20.10;72.60
67769;DHT22;54569;52.018;5.584;2023-06-22T05:42:21;20.20;72.50
67769;DHT22;54569;52.018;5.584;2023-06-22T05:44:47;20.30;72.60
67769;DHT22;54569;52.018;5.584;2023-06-22T05:47:13;20.30;72.60
67769;DHT22;54569;52.018;5.584;2023-06-22T05:49:38;20.40;72.70
67769;DHT22;54569;52.018;5.584;2023-06-22T05:52:04;20.50;72.50
67769;DHT22;54569;52.018;5.584;2023-06-22T05:54:30;20.60;72.40
67769;DHT22;54569;52.018;5.584;2023-06-22T05:56:56;20.70;72.20
67769;DHT22;54569;52.018;5.584;2023-06-22T05:59:22;20.80;72.20
67769;DHT22;54569;52.018;5.584;2023-06-22T06:01:48;20.90;72.20
67769;DHT22;54569;52.018;5.584;2023-06-22T06:04:17;21.00;71.90
67769;DHT22;54569;52.018;5.584;2023-06-22T06:06:43;21.10;71.90
67769;DHT22;54569;52.018;5.584;2023-06-22T06:09:09;21.20;71.60
67769;DHT22;54569;52.018;5.584;2023-06-22T06:11:37;21.30;71.40
67769;DHT22;54569;52.018;5.584;2023-06-22T06:14:03;21.50;71.00
67769;DHT22;54569;52.018;5.584;2023-06-22T06:16:29;21.60;70.90
67769;DHT22;54569;52.018;5.584;2023-06-22T06:18:54;21.60;70.30
67769;DHT22;54569;52.018;5.584;2023-06-22T06:21:21;21.80;70.50
67769;DHT22;54569;52.018;5.584;2023-06-22T06:23:47;21.80;69.90
67769;DHT22;54569;52.018;5.584;2023-06-22T06:26:13;21.90;69.70
67769;DHT22;54569;52.018;5.584;2023-06-22T06:28:42;22.00;69.90
67769;DHT22;54569;52.018;5.584;2023-06-22T06:31:07;22.10;70.30
67769;DHT22;54569;52.018;5.584;2023-06-22T06:33:34;22.30;69.40
67769;DHT22;54569;52.018;5.584;2023-06-22T06:36:00;22.40;69.30
67769;DHT22;54569;52.018;5.584;2023-06-22T06:38:27;22.50;69.00
67769;DHT22;54569;52.018;5.584;2023-06-22T06:40:54;22.60;68.90
67769;DHT22;54569;52.018;5.584;2023-06-22T06:43:20;22.80;68.50
67769;DHT22;54569;52.018;5.584;2023-06-22T06:45:45;22.90;68.00
67769;DHT22;54569;52.018;5.584;2023-06-22T06:48:11;23.10;68.30
67769;DHT22;54569;52.018;5.584;2023-06-22T06:50:37;23.20;67.40
67769;DHT22;54569;52.018;5.584;2023-06-22T06:53:03;23.30;66.90
67769;DHT22;54569;52.018;5.584;2023-06-22T06:55:28;23.40;66.90
67769;DHT22;54569;52.018;5.584;2023-06-22T06:57:58;23.40;66.60
67769;DHT22;54569;52.018;5.584;2023-06-22T07:00:25;23.50;66.70
67769;DHT22;54569;52.018;5.584;2023-06-22T07:02:52;23.60;66.70
67769;DHT22;54569;52.018;5.584;2023-06-22T07:05:18;23.70;66.70
67769;DHT22;54569;52.018;5.584;2023-06-22T07:07:44;23.80;66.40
67769;DHT22;54569;52.018;5.584;2023-06-22T07:10:10;23.90;66.10
67769;DHT22;54569;52.018;5.584;2023-06-22T07:12:36;24.00;66.00
67769;DHT22;54569;52.018;5.584;2023-06-22T07:15:06;24.00;66.00
67769;DHT22;54569;52.018;5.584;2023-06-22T07:17:36;24.10;65.40
67769;DHT22;54569;52.018;5.584;2023-06-22T07:20:03;24.20;65.70
67769;DHT22;54569;52.018;5.584;2023-06-22T07:22:33;24.30;64.70
67769;DHT22;54569;52.018;5.584;2023-06-22T07:24:59;24.30;64.30
67769;DHT22;54569;52.018;5.584;2023-06-22T07:27:25;24.40;64.30
67769;DHT22;54569;52.018;5.584;2023-06-22T07:29:51;24.50;64.20
67769;DHT22;54569;52.018;5.584;2023-06-22T07:32:16;24.60;63.70
67769;DHT22;54569;52.018;5.584;2023-06-22T07:34:42;24.70;63.60
67769;DHT22;54569;52.018;5.584;2023-06-22T07:37:09;24.90;63.80
67769;DHT22;54569;52.018;5.584;2023-06-22T07:39:34;25.10;63.50
67769;DHT22;54569;52.018;5.584;2023-06-22T07:42:00;25.30;62.80
67769;DHT22;54569;52.018;5.584;2023-06-22T07:44:26;25.60;62.50
67769;DHT22;54569;52.018;5.584;2023-06-22T07:46:51;25.80;61.70
67769;DHT22;54569;52.018;5.584;2023-06-22T07:49:17;26.00;61.10
67769;DHT22;54569;52.018;5.584;2023-06-22T07:51:43;26.10;61.10
67769;DHT22;54569;52.018;5.584;2023-06-22T07:54:09;26.30;61.00
67769;DHT22;54569;52.018;5.584;2023-06-22T07:56:37;26.50;60.50
67769;DHT22;54569;52.018;5.584;2023-06-22T07:59:02;26.60;60.20
67769;DHT22;54569;52.018;5.584;2023-06-22T08:01:29;26.70;59.90
67769;DHT22;54569;52.018;5.584;2023-06-22T08:03:55;26.80;59.70
67769;DHT22;54569;52.018;5.584;2023-06-22T08:06:21;26.90;59.30
67769;DHT22;54569;52.018;5.584;2023-06-22T08:08:46;27.00;59.20
67769;DHT22;54569;52.018;5.584;2023-06-22T08:11:14;27.10;58.80
67769;DHT22;54569;52.018;5.584;2023-06-22T08:13:40;27.10;58.80
67769;DHT22;54569;52.018;5.584;2023-06-22T08:16:05;27.20;58.80
67769;DHT22;54569;52.018;5.584;2023-06-22T08:18:32;27.20;58.50
67769;DHT22;54569;52.018;5.584;2023-06-22T08:20:58;27.30;58.50
67769;DHT22;54569;52.018;5.584;2023-06-22T08:23:24;27.30;58.10
67769;DHT22;54569;52.018;5.584;2023-06-22T08:25:50;27.20;58.40
67769;DHT22;54569;52.018;5.584;2023-06-22T08:28:16;27.20;58.40
67769;DHT22;54569;52.018;5.584;2023-06-22T08:30:41;27.20;58.40
67769;DHT22;54569;52.018;5.584;2023-06-22T08:33:07;27.20;58.20
67769;DHT22;54569;52.018;5.584;2023-06-22T08:35:33;27.30;58.20
67769;DHT22;54569;52.018;5.584;2023-06-22T08:37:58;27.20;58.20
67769;DHT22;54569;52.018;5.584;2023-06-22T08:40:25;27.00;58.30
67769;DHT22;54569;52.018;5.584;2023-06-22T08:42:51;26.90;58.20
67769;DHT22;54569;52.018;5.584;2023-06-22T08:45:16;26.90;58.30
67769;DHT22;54569;52.018;5.584;2023-06-22T08:47:42;26.80;58.50
67769;DHT22;54569;52.018;5.584;2023-06-22T08:50:09;26.90;58.50
67769;DHT22;54569;52.018;5.584;2023-06-22T08:52:35;26.90;58.40
67769;DHT22;54569;52.018;5.584;2023-06-22T08:55:01;26.80;58.00
67769;DHT22;54569;52.018;5.584;2023-06-22T08:57:28;26.90;57.70
67769;DHT22;54569;52.018;5.584;2023-06-22T08:59:54;26.90;57.50
67769;DHT22;54569;52.018;5.584;2023-06-22T09:02:26;26.90;57.50
67769;DHT22;54569;52.018;5.584;2023-06-22T09:04:56;26.90;57.20
67769;DHT22;54569;52.018;5.584;2023-06-22T09:07:23;26.90;58.10
67769;DHT22;54569;52.018;5.584;2023-06-22T09:09:50;27.00;57.20
67769;DHT22;54569;52.018;5.584;2023-06-22T09:12:16;27.20;56.90
67769;DHT22;54569;52.018;5.584;2023-06-22T09:14:42;27.20;56.30
67769;DHT22;54569;52.018;5.584;2023-06-22T09:17:08;27.20;56.30
67769;DHT22;54569;52.018;5.584;2023-06-22T09:19:33;27.30;56.30
67769;DHT22;54569;52.018;5.584;2023-06-22T09:22:00;27.30;56.50
67769;DHT22;54569;52.018;5.584;2023-06-22T09:24:25;27.30;56.80
67769;DHT22;54569;52.018;5.584;2023-06-22T09:26:51;27.20;56.70
67769;DHT22;54569;52.018;5.584;2023-06-22T09:29:17;27.20;56.60
67769;DHT22;54569;52.018;5.584;2023-06-22T09:31:42;27.20;56.60
67769;DHT22;54569;52.018;5.584;2023-06-22T09:34:09;27.10;56.50
67769;DHT22;54569;52.018;5.584;2023-06-22T09:36:35;27.10;56.70
67769;DHT22;54569;52.018;5.584;2023-06-22T09:39:01;27.00;56.90
67769;DHT22;54569;52.018;5.584;2023-06-22T09:41:31;27.00;56.30
67769;DHT22;54569;52.018;5.584;2023-06-22T09:43:57;27.00;56.20
67769;DHT22;54569;52.018;5.584;2023-06-22T09:46:23;27.00;56.40
67769;DHT22;54569;52.018;5.584;2023-06-22T09:48:51;26.90;56.20
67769;DHT22;54569;52.018;5.584;2023-06-22T09:51:16;26.90;56.40
67769;DHT22;54569;52.018;5.584;2023-06-22T09:53:44;26.90;57.20
67769;DHT22;54569;52.018;5.584;2023-06-22T09:56:10;26.80;56.20
67769;DHT22;54569;52.018;5.584;2023-06-22T09:58:41;26.80;56.20
67769;DHT22;54569;52.018;5.584;2023-06-22T10:01:07;26.80;56.30
67769;DHT22;54569;52.018;5.584;2023-06-22T10:03:33;26.70;56.40
67769;DHT22;54569;52.018;5.584;2023-06-22T10:05:59;26.60;57.00
67769;DHT22;54569;52.018;5.584;2023-06-22T10:08:25;26.50;56.60
67769;DHT22;54569;52.018;5.584;2023-06-22T10:10:50;26.40;56.60
67769;DHT22;54569;52.018;5.584;2023-06-22T10:13:16;26.30;56.60
67769;DHT22;54569;52.018;5.584;2023-06-22T10:15:42;26.30;56.40
67769;DHT22;54569;52.018;5.584;2023-06-22T10:18:08;26.20;56.50
67769;DHT22;54569;52.018;5.584;2023-06-22T10:20:33;26.10;56.70
67769;DHT22;54569;52.018;5.584;2023-06-22T10:22:59;26.00;56.70
67769;DHT22;54569;52.018;5.584;2023-06-22T10:25:27;26.00;56.70
67769;DHT22;54569;52.018;5.584;2023-06-22T10:27:53;25.90;56.60
67769;DHT22;54569;52.018;5.584;2023-06-22T10:30:18;25.90;56.70
67769;DHT22;54569;52.018;5.584;2023-06-22T10:32:44;25.90;57.00
67769;DHT22;54569;52.018;5.584;2023-06-22T10:35:10;25.90;56.50
67769;DHT22;54569;52.018;5.584;2023-06-22T10:37:43;25.90;56.60
67769;DHT22;54569;52.018;5.584;2023-06-22T10:40:09;25.80;56.70
67769;DHT22;54569;52.018;5.584;2023-06-22T10:42:35;25.90;56.80
67769;DHT22;54569;52.018;5.584;2023-06-22T10:45:01;25.90;56.90
67769;DHT22;54569;52.018;5.584;2023-06-22T10:47:26;25.90;56.50
67769;DHT22;54569;52.018;5.584;2023-06-22T10:49:52;25.90;56.40
67769;DHT22;54569;52.018;5.584;2023-06-22T10:52:18;25.90;56.30
67769;DHT22;54569;52.018;5.584;2023-06-22T10:54:43;25.90;56.30
67769;DHT22;54569;52.018;5.584;2023-06-22T10:57:09;25.90;56.50
67769;DHT22;54569;52.018;5.584;2023-06-22T10:59:35;25.90;56.10
67769;DHT22;54569;52.018;5.584;2023-06-22T11:02:00;25.90;56.20
67769;DHT22;54569;52.018;5.584;2023-06-22T11:04:27;25.90;56.30
67769;DHT22;54569;52.018;5.584;2023-06-22T11:06:53;25.90;56.40
67769;DHT22;54569;52.018;5.584;2023-06-22T11:09:18;26.00;56.40
67769;DHT22;54569;52.018;5.584;2023-06-22T11:11:50;26.00;56.30
67769;DHT22;54569;52.018;5.584;2023-06-22T11:14:16;26.00;56.30
67769;DHT22;54569;52.018;5.584;2023-06-22T11:16:42;26.00;56.40
67769;DHT22;54569;52.018;5.584;2023-06-22T11:19:07;26.00;56.30
67769;DHT22;54569;52.018;5.584;2023-06-22T11:21:33;26.00;56.40
67769;DHT22;54569;52.018;5.584;2023-06-22T11:23:59;26.00;56.20
67769;DHT22;54569;52.018;5.584;2023-06-22T11:26:25;26.00;56.40
67769;DHT22;54569;52.018;5.584;2023-06-22T11:28:54;26.00;56.60
67769;DHT22;54569;52.018;5.584;2023-06-22T11:31:20;26.00;57.00
67769;DHT22;54569;52.018;5.584;2023-06-22T11:33:45;26.00;56.90
67769;DHT22;54569;52.018;5.584;2023-06-22T11:36:12;26.00;57.10
67769;DHT22;54569;52.018;5.584;2023-06-22T11:38:38;26.00;57.10
67769;DHT22;54569;52.018;5.584;2023-06-22T11:41:08;25.90;57.20
67769;DHT22;54569;52.018;5.584;2023-06-22T11:43:34;25.90;57.50
67769;DHT22;54569;52.018;5.584;2023-06-22T11:46:01;25.90;57.50
67769;DHT22;54569;52.018;5.584;2023-06-22T11:48:27;25.80;57.80
67769;DHT22;54569;52.018;5.584;2023-06-22T11:50:53;25.80;58.10
67769;DHT22;54569;52.018;5.584;2023-06-22T11:53:21;25.70;58.10
67769;DHT22;54569;52.018;5.584;2023-06-22T11:55:47;25.60;58.20
67769;DHT22;54569;52.018;5.584;2023-06-22T11:58:14;25.60;58.90
67769;DHT22;54569;52.018;5.584;2023-06-22T12:00:40;25.50;58.70
67769;DHT22;54569;52.018;5.584;2023-06-22T12:03:07;25.50;58.90
67769;DHT22;54569;52.018;5.584;2023-06-22T12:05:33;25.50;59.10
67769;DHT22;54569;52.018;5.584;2023-06-22T12:07:59;25.50;59.30
67769;DHT22;54569;52.018;5.584;2023-06-22T12:10:27;25.50;59.30
67769;DHT22;54569;52.018;5.584;2023-06-22T12:12:56;25.50;59.60
67769;DHT22;54569;52.018;5.584;2023-06-22T12:15:23;25.50;59.70
67769;DHT22;54569;52.018;5.584;2023-06-22T12:17:49;25.40;59.90
67769;DHT22;54569;52.018;5.584;2023-06-22T12:20:15;25.40;60.30
67769;DHT22;54569;52.018;5.584;2023-06-22T12:22:41;25.40;60.80
67769;DHT22;54569;52.018;5.584;2023-06-22T12:25:08;25.30;60.80
67769;DHT22;54569;52.018;5.584;2023-06-22T12:27:34;25.30;61.20
67769;DHT22;54569;52.018;5.584;2023-06-22T12:30:00;25.30;61.40
67769;DHT22;54569;52.018;5.584;2023-06-22T12:32:26;25.20;61.50
67769;DHT22;54569;52.018;5.584;2023-06-22T12:34:52;25.20;61.90
67769;DHT22;54569;52.018;5.584;2023-06-22T12:37:18;25.10;62.00
67769;DHT22;54569;52.018;5.584;2023-06-22T12:39:44;25.00;62.20
67769;DHT22;54569;52.018;5.584;2023-06-22T12:42:10;25.00;62.30
67769;DHT22;54569;52.018;5.584;2023-06-22T12:44:40;24.90;62.60
67769;DHT22;54569;52.018;5.584;2023-06-22T12:47:06;24.80;62.60
67769;DHT22;54569;52.018;5.584;2023-06-22T12:49:34;24.80;62.90
67769;DHT22;54569;52.018;5.584;2023-06-22T12:52:00;24.80;63.10
67769;DHT22;54569;52.018;5.584;2023-06-22T12:54:26;24.70;62.70
67769;DHT22;54569;52.018;5.584;2023-06-22T12:56:53;24.70;62.80
67769;DHT22;54569;52.018;5.584;2023-06-22T12:59:19;24.60;63.10
67769;DHT22;54569;52.018;5.584;2023-06-22T13:01:45;24.60;63.70
67769;DHT22;54569;52.018;5.584;2023-06-22T13:04:11;24.60;64.10
67769;DHT22;54569;52.018;5.584;2023-06-22T13:06:40;24.50;64.50
67769;DHT22;54569;52.018;5.584;2023-06-22T13:09:08;24.50;65.10
67769;DHT22;54569;52.018;5.584;2023-06-22T13:11:34;24.40;65.50
67769;DHT22;54569;52.018;5.584;2023-06-22T13:14:00;24.30;65.40
67769;DHT22;54569;52.018;5.584;2023-06-22T13:16:25;24.20;65.90
67769;DHT22;54569;52.018;5.584;2023-06-22T13:18:51;24.20;66.30
67769;DHT22;54569;52.018;5.584;2023-06-22T13:21:17;24.20;66.50
67769;DHT22;54569;52.018;5.584;2023-06-22T13:23:43;24.20;66.80
67769;DHT22;54569;52.018;5.584;2023-06-22T13:26:09;24.20;67.10
67769;DHT22;54569;52.018;5.584;2023-06-22T13:28:34;24.10;67.00
67769;DHT22;54569;52.018;5.584;2023-06-22T13:31:00;23.90;67.20
67769;DHT22;54569;52.018;5.584;2023-06-22T13:33:26;23.80;67.70
67769;DHT22;54569;52.018;5.584;2023-06-22T13:35:51;23.80;68.00
67769;DHT22;54569;52.018;5.584;2023-06-22T13:38:17;23.70;68.10
67769;DHT22;54569;52.018;5.584;2023-06-22T13:40:43;23.70;68.00
67769;DHT22;54569;52.018;5.584;2023-06-22T13:43:08;23.70;68.50
67769;DHT22;54569;52.018;5.584;2023-06-22T13:45:34;23.70;68.60
67769;DHT22;54569;52.018;5.584;2023-06-22T13:48:00;23.60;68.80
67769;DHT22;54569;52.018;5.584;2023-06-22T13:50:26;23.60;69.00
67769;DHT22;54569;52.018;5.584;2023-06-22T13:52:52;23.60;69.20
67769;DHT22;54569;52.018;5.584;2023-06-22T13:55:19;23.50;69.00
67769;DHT22;54569;52.018;5.584;2023-06-22T13:57:46;23.50;69.60
67769;DHT22;54569;52.018;5.584;2023-06-22T14:00:12;23.40;70.00
67769;DHT22;54569;52.018;5.584;2023-06-22T14:02:38;23.40;69.90
67769;DHT22;54569;52.018;5.584;2023-06-22T14:05:05;23.30;70.10
67769;DHT22;54569;52.018;5.584;2023-06-22T14:07:31;23.20;70.30
67769;DHT22;54569;52.018;5.584;2023-06-22T14:09:57;23.20;70.80
67769;DHT22;54569;52.018;5.584;2023-06-22T14:12:24;23.20;71.30
67769;DHT22;54569;52.018;5.584;2023-06-22T14:14:49;23.20;71.40
67769;DHT22;54569;52.018;5.584;2023-06-22T14:17:15;23.20;71.50
67769;DHT22;54569;52.018;5.584;2023-06-22T14:19:41;23.20;72.00
67769;DHT22;54569;52.018;5.584;2023-06-22T14:22:06;23.20;72.10
67769;DHT22;54569;52.018;5.584;2023-06-22T14:24:32;23.20;71.80
67769;DHT22;54569;52.018;5.584;2023-06-22T14:26:58;23.20;72.00
67769;DHT22;54569;52.018;5.584;2023-06-22T14:29:24;23.10;71.90
67769;DHT22;54569;52.018;5.584;2023-06-22T14:31:50;23.10;71.90
67769;DHT22;54569;52.018;5.584;2023-06-22T14:34:16;23.00;72.20
67769;DHT22;54569;52.018;5.584;2023-06-22T14:36:42;22.90;72.50
67769;DHT22;54569;52.018;5.584;2023-06-22T14:39:09;22.90;73.00
67769;DHT22;54569;52.018;5.584;2023-06-22T14:41:35;22.90;73.50
67769;DHT22;54569;52.018;5.584;2023-06-22T14:44:01;22.90;74.00
67769;DHT22;54569;52.018;5.584;2023-06-22T14:46:27;22.90;73.90
67769;DHT22;54569;52.018;5.584;2023-06-22T14:48:53;22.90;73.90
67769;DHT22;54569;52.018;5.584;2023-06-22T14:51:18;22.80;74.20
67769;DHT22;54569;52.018;5.584;2023-06-22T14:53:45;22.80;74.40
67769;DHT22;54569;52.018;5.584;2023-06-22T14:56:11;22.80;74.60
67769;DHT22;54569;52.018;5.584;2023-06-22T14:58:40;22.70;75.10
67769;DHT22;54569;52.018;5.584;2023-06-22T15:01:06;22.70;75.20
67769;DHT22;54569;52.018;5.584;2023-06-22T15:03:34;22.60;75.50
67769;DHT22;54569;52.018;5.584;2023-06-22T15:06:02;22.60;75.60
67769;DHT22;54569;52.018;5.584;2023-06-22T15:08:28;22.60;76.10
67769;DHT22;54569;52.018;5.584;2023-06-22T15:10:54;22.60;76.20
67769;DHT22;54569;52.018;5.584;2023-06-22T15:13:20;22.50;76.50
67769;DHT22;54569;52.018;5.584;2023-06-22T15:15:48;22.50;76.60
67769;DHT22;54569;52.018;5.584;2023-06-22T15:18:17;22.50;76.80
67769;DHT22;54569;52.018;5.584;2023-06-22T15:20:43;22.50;77.20
67769;DHT22;54569;52.018;5.584;2023-06-22T15:23:14;22.50;77.60
67769;DHT22;54569;52.018;5.584;2023-06-22T15:25:40;22.50;77.70
67769;DHT22;54569;52.018;5.584;2023-06-22T15:28:06;22.50;78.00
67769;DHT22;54569;52.018;5.584;2023-06-22T15:30:31;22.50;78.10
67769;DHT22;54569;52.018;5.584;2023-06-22T15:32:57;22.50;78.40
67769;DHT22;54569;52.018;5.584;2023-06-22T15:35:23;22.50;78.80
67769;DHT22;54569;52.018;5.584;2023-06-22T15:37:49;22.50;78.90
67769;DHT22;54569;52.018;5.584;2023-06-22T15:40:17;22.50;79.50